sensor_id;sensor_type;location;lat;lon;timestamp;P1;durP1;ratioP1;P2;durP2;ratioP2
76310;SDS011;65120;59.304;18.294;2023-08-31T00:01:00;1.75;;;0.30;;
76310;SDS011;65120;59.304;18.294;2023-08-31T00:03:29;3.50;;;0.35;;
76310;SDS011;65120;59.304;18.294;2023-08-31T00:05:56;0.45;;;0.30;;
76310;SDS011;65120;59.304;18.294;2023-08-31T00:08:23;0.95;;;0.32;;
76310;SDS011;65120;59.304;18.294;2023-08-31T00:10:54;2.05;;;0.40;;
76310;SDS011;65120;59.304;18.294;2023-08-31T00:13:24;4.95;;;0.40;;
76310;SDS011;65120;59.304;18.294;2023-08-31T00:15:53;4.65;;;0.40;;
76310;SDS011;65120;59.304;18.294;2023-08-31T00:18:21;4.00;;;0.40;;
76310;SDS011;65120;59.304;18.294;2023-08-31T00:20:49;4.88;;;0.45;;
76310;SDS011;65120;59.304;18.294;2023-08-31T00:23:16;1.38;;;0.30;;
76310;SDS011;65120;59.304;18.294;2023-08-31T00:25:44;2.65;;;0.40;;
76310;SDS011;65120;59.304;18.294;2023-08-31T00:28:11;0.82;;;0.30;;
76310;SDS011;65120;59.304;18.294;2023-08-31T00:30:42;2.70;;;0.30;;
76310;SDS011;65120;59.304;18.294;2023-08-31T00:33:09;4.28;;;0.45;;
76310;SDS011;65120;59.304;18.294;2023-08-31T00:35:36;1.42;;;0.52;;
76310;SDS011;65120;59.304;18.294;2023-08-31T00:38:09;1.52;;;0.30;;
76310;SDS011;65120;59.304;18.294;2023-08-31T00:40:38;0.80;;;0.40;;
76310;SDS011;65120;59.304;18.294;2023-08-31T00:43:07;4.55;;;0.40;;
76310;SDS011;65120;59.304;18.294;2023-08-31T00:45:34;2.78;;;0.43;;
76310;SDS011;65120;59.304;18.294;2023-08-31T00:48:03;3.70;;;0.43;;
76310;SDS011;65120;59.304;18.294;2023-08-31T00:50:31;1.92;;;0.40;;
76310;SDS011;65120;59.304;18.294;2023-08-31T00:52:58;1.10;;;0.38;;
76310;SDS011;65120;59.304;18.294;2023-08-31T00:55:24;0.70;;;0.50;;
76310;SDS011;65120;59.304;18.294;2023-08-31T00:57:51;4.82;;;0.38;;
76310;SDS011;65120;59.304;18.294;2023-08-31T01:00:20;2.42;;;0.45;;
76310;SDS011;65120;59.304;18.294;2023-08-31T01:02:51;0.60;;;0.30;;
76310;SDS011;65120;59.304;18.294;2023-08-31T01:05:36;0.50;;;0.40;;
76310;SDS011;65120;59.304;18.294;2023-08-31T01:08:12;5.53;;;0.40;;
76310;SDS011;65120;59.304;18.294;2023-08-31T01:10:47;0.85;;;0.30;;
76310;SDS011;65120;59.304;18.294;2023-08-31T01:13:24;1.45;;;0.35;;
76310;SDS011;65120;59.304;18.294;2023-08-31T01:15:54;0.55;;;0.52;;
76310;SDS011;65120;59.304;18.294;2023-08-31T01:18:26;0.93;;;0.40;;
76310;SDS011;65120;59.304;18.294;2023-08-31T01:20:58;1.02;;;0.40;;
76310;SDS011;65120;59.304;18.294;2023-08-31T01:26:16;1.23;;;0.40;;
76310;SDS011;65120;59.304;18.294;2023-08-31T01:28:43;7.07;;;0.60;;
76310;SDS011;65120;59.304;18.294;2023-08-31T01:31:10;3.00;;;0.50;;
76310;SDS011;65120;59.304;18.294;2023-08-31T01:33:37;3.80;;;0.40;;
76310;SDS011;65120;59.304;18.294;2023-08-31T01:36:05;1.70;;;0.40;;
76310;SDS011;65120;59.304;18.294;2023-08-31T01:38:39;0.40;;;0.40;;
76310;SDS011;65120;59.304;18.294;2023-08-31T01:41:12;2.33;;;0.50;;
76310;SDS011;65120;59.304;18.294;2023-08-31T01:43:42;1.90;;;0.40;;
76310;SDS011;65120;59.304;18.294;2023-08-31T01:46:10;5.35;;;0.40;;
76310;SDS011;65120;59.304;18.294;2023-08-31T01:48:40;0.60;;;0.40;;
76310;SDS011;65120;59.304;18.294;2023-08-31T01:51:07;1.02;;;0.40;;
76310;SDS011;65120;59.304;18.294;2023-08-31T01:53:34;0.63;;;0.40;;
76310;SDS011;65120;59.304;18.294;2023-08-31T01:56:01;0.60;;;0.35;;
76310;SDS011;65120;59.304;18.294;2023-08-31T01:58:31;2.78;;;0.40;;
76310;SDS011;65120;59.304;18.294;2023-08-31T02:00:58;2.03;;;0.40;;
76310;SDS011;65120;59.304;18.294;2023-08-31T02:03:25;0.90;;;0.68;;
76310;SDS011;65120;59.304;18.294;2023-08-31T02:05:52;0.73;;;0.38;;
76310;SDS011;65120;59.304;18.294;2023-08-31T02:08:19;3.60;;;0.43;;
76310;SDS011;65120;59.304;18.294;2023-08-31T02:10:46;1.25;;;0.40;;
76310;SDS011;65120;59.304;18.294;2023-08-31T02:13:13;1.88;;;0.50;;
76310;SDS011;65120;59.304;18.294;2023-08-31T02:15:42;0.88;;;0.30;;
76310;SDS011;65120;59.304;18.294;2023-08-31T02:18:09;1.85;;;0.30;;
76310;SDS011;65120;59.304;18.294;2023-08-31T02:20:36;3.00;;;0.40;;
76310;SDS011;65120;59.304;18.294;2023-08-31T02:23:03;4.95;;;0.50;;
76310;SDS011;65120;59.304;18.294;2023-08-31T02:25:30;2.25;;;0.40;;
76310;SDS011;65120;59.304;18.294;2023-08-31T02:27:57;0.40;;;0.30;;
76310;SDS011;65120;59.304;18.294;2023-08-31T02:30:24;0.88;;;0.30;;
76310;SDS011;65120;59.304;18.294;2023-08-31T02:32:53;0.93;;;0.30;;
76310;SDS011;65120;59.304;18.294;2023-08-31T02:35:19;1.50;;;0.38;;
76310;SDS011;65120;59.304;18.294;2023-08-31T02:37:46;0.98;;;0.40;;
76310;SDS011;65120;59.304;18.294;2023-08-31T02:40:13;0.25;;;0.22;;
76310;SDS011;65120;59.304;18.294;2023-08-31T02:42:41;0.60;;;0.40;;
76310;SDS011;65120;59.304;18.294;2023-08-31T02:45:08;1.85;;;0.30;;
76310;SDS011;65120;59.304;18.294;2023-08-31T02:47:35;5.03;;;0.60;;
76310;SDS011;65120;59.304;18.294;2023-08-31T02:50:04;1.65;;;0.30;;
76310;SDS011;65120;59.304;18.294;2023-08-31T02:52:32;1.75;;;0.38;;
76310;SDS011;65120;59.304;18.294;2023-08-31T02:54:59;3.65;;;0.40;;
76310;SDS011;65120;59.304;18.294;2023-08-31T02:57:25;0.93;;;0.40;;
76310;SDS011;65120;59.304;18.294;2023-08-31T02:59:52;1.70;;;0.30;;
76310;SDS011;65120;59.304;18.294;2023-08-31T03:02:19;0.77;;;0.30;;
76310;SDS011;65120;59.304;18.294;2023-08-31T03:04:47;1.17;;;0.30;;
76310;SDS011;65120;59.304;18.294;2023-08-31T03:07:16;1.95;;;0.47;;
76310;SDS011;65120;59.304;18.294;2023-08-31T03:09:43;0.40;;;0.30;;
76310;SDS011;65120;59.304;18.294;2023-08-31T03:12:14;0.40;;;0.40;;
76310;SDS011;65120;59.304;18.294;2023-08-31T03:14:41;0.30;;;0.30;;
76310;SDS011;65120;59.304;18.294;2023-08-31T03:17:08;0.50;;;0.32;;
76310;SDS011;65120;59.304;18.294;2023-08-31T03:19:35;0.98;;;0.40;;
76310;SDS011;65120;59.304;18.294;2023-08-31T03:22:02;1.67;;;0.70;;
76310;SDS011;65120;59.304;18.294;2023-08-31T03:24:30;0.40;;;0.32;;
76310;SDS011;65120;59.304;18.294;2023-08-31T03:26:58;2.78;;;0.60;;
76310;SDS011;65120;59.304;18.294;2023-08-31T03:29:24;1.13;;;0.30;;
76310;SDS011;65120;59.304;18.294;2023-08-31T03:31:54;0.52;;;0.40;;
76310;SDS011;65120;59.304;18.294;2023-08-31T03:34:20;2.13;;;0.50;;
76310;SDS011;65120;59.304;18.294;2023-08-31T03:36:47;0.90;;;0.40;;
76310;SDS011;65120;59.304;18.294;2023-08-31T03:39:15;1.58;;;0.40;;
76310;SDS011;65120;59.304;18.294;2023-08-31T03:41:43;0.82;;;0.30;;
76310;SDS011;65120;59.304;18.294;2023-08-31T03:44:10;1.30;;;0.45;;
76310;SDS011;65120;59.304;18.294;2023-08-31T03:46:37;4.28;;;0.65;;
76310;SDS011;65120;59.304;18.294;2023-08-31T03:49:04;0.82;;;0.60;;
76310;SDS011;65120;59.304;18.294;2023-08-31T03:51:31;4.57;;;0.40;;
76310;SDS011;65120;59.304;18.294;2023-08-31T03:53:58;1.35;;;0.40;;
76310;SDS011;65120;59.304;18.294;2023-08-31T03:56:25;2.38;;;0.40;;
76310;SDS011;65120;59.304;18.294;2023-08-31T03:58:53;0.50;;;0.40;;
76310;SDS011;65120;59.304;18.294;2023-08-31T04:01:20;0.52;;;0.40;;
76310;SDS011;65120;59.304;18.294;2023-08-31T04:03:47;0.70;;;0.70;;
76310;SDS011;65120;59.304;18.294;2023-08-31T04:06:13;2.22;;;0.50;;
76310;SDS011;65120;59.304;18.294;2023-08-31T04:08:41;0.93;;;0.40;;
76310;SDS011;65120;59.304;18.294;2023-08-31T04:11:08;5.53;;;0.68;;
76310;SDS011;65120;59.304;18.294;2023-08-31T04:13:35;0.40;;;0.40;;
76310;SDS011;65120;59.304;18.294;2023-08-31T04:16:03;0.65;;;0.40;;
76310;SDS011;65120;59.304;18.294;2023-08-31T04:18:30;2.22;;;0.40;;
76310;SDS011;65120;59.304;18.294;2023-08-31T04:20:57;2.58;;;0.30;;
76310;SDS011;65120;59.304;18.294;2023-08-31T04:23:28;0.40;;;0.30;;
76310;SDS011;65120;59.304;18.294;2023-08-31T04:25:55;0.85;;;0.50;;
76310;SDS011;65120;59.304;18.294;2023-08-31T04:28:23;1.80;;;0.50;;
76310;SDS011;65120;59.304;18.294;2023-08-31T04:30:50;1.00;;;0.90;;
76310;SDS011;65120;59.304;18.294;2023-08-31T04:33:18;0.35;;;0.30;;
76310;SDS011;65120;59.304;18.294;2023-08-31T04:35:45;2.25;;;0.45;;
76310;SDS011;65120;59.304;18.294;2023-08-31T04:38:12;0.68;;;0.30;;
76310;SDS011;65120;59.304;18.294;2023-08-31T04:40:39;2.65;;;0.40;;
76310;SDS011;65120;59.304;18.294;2023-08-31T04:43:06;0.40;;;0.30;;
76310;SDS011;65120;59.304;18.294;2023-08-31T04:45:33;2.70;;;0.40;;
76310;SDS011;65120;59.304;18.294;2023-08-31T04:47:59;3.03;;;0.40;;
76310;SDS011;65120;59.304;18.294;2023-08-31T04:50:28;1.00;;;0.55;;
76310;SDS011;65120;59.304;18.294;2023-08-31T04:52:55;2.05;;;0.40;;
76310;SDS011;65120;59.304;18.294;2023-08-31T04:55:22;1.17;;;0.50;;
76310;SDS011;65120;59.304;18.294;2023-08-31T04:57:49;2.05;;;0.40;;
76310;SDS011;65120;59.304;18.294;2023-08-31T05:00:16;3.38;;;0.47;;
76310;SDS011;65120;59.304;18.294;2023-08-31T05:02:43;1.95;;;0.55;;
76310;SDS011;65120;59.304;18.294;2023-08-31T05:05:10;0.73;;;0.63;;
76310;SDS011;65120;59.304;18.294;2023-08-31T05:07:38;2.25;;;0.70;;
76310;SDS011;65120;59.304;18.294;2023-08-31T05:10:06;5.00;;;0.70;;
76310;SDS011;65120;59.304;18.294;2023-08-31T05:12:34;7.03;;;0.60;;
76310;SDS011;65120;59.304;18.294;2023-08-31T05:15:00;3.35;;;1.00;;
76310;SDS011;65120;59.304;18.294;2023-08-31T05:17:28;1.77;;;0.98;;
76310;SDS011;65120;59.304;18.294;2023-08-31T05:19:55;2.35;;;1.20;;
76310;SDS011;65120;59.304;18.294;2023-08-31T05:22:22;1.90;;;0.82;;
76310;SDS011;65120;59.304;18.294;2023-08-31T05:24:50;2.17;;;1.00;;
76310;SDS011;65120;59.304;18.294;2023-08-31T05:27:17;1.02;;;0.80;;
76310;SDS011;65120;59.304;18.294;2023-08-31T05:29:44;1.63;;;1.17;;
76310;SDS011;65120;59.304;18.294;2023-08-31T05:32:12;4.22;;;1.23;;
76310;SDS011;65120;59.304;18.294;2023-08-31T05:34:38;6.40;;;1.45;;
76310;SDS011;65120;59.304;18.294;2023-08-31T05:37:05;1.73;;;1.45;;
76310;SDS011;65120;59.304;18.294;2023-08-31T05:39:32;6.13;;;1.35;;
76310;SDS011;65120;59.304;18.294;2023-08-31T05:42:00;2.85;;;1.58;;
76310;SDS011;65120;59.304;18.294;2023-08-31T05:44:27;4.75;;;1.60;;
76310;SDS011;65120;59.304;18.294;2023-08-31T05:46:54;1.40;;;1.30;;
76310;SDS011;65120;59.304;18.294;2023-08-31T05:49:21;3.55;;;1.45;;
76310;SDS011;65120;59.304;18.294;2023-08-31T05:51:49;3.60;;;1.83;;
76310;SDS011;65120;59.304;18.294;2023-08-31T05:54:17;1.83;;;1.30;;
76310;SDS011;65120;59.304;18.294;2023-08-31T05:56:45;2.42;;;1.70;;
76310;SDS011;65120;59.304;18.294;2023-08-31T05:59:14;4.03;;;1.65;;
76310;SDS011;65120;59.304;18.294;2023-08-31T06:01:41;3.10;;;2.40;;
76310;SDS011;65120;59.304;18.294;2023-08-31T06:04:11;6.07;;;2.17;;
76310;SDS011;65120;59.304;18.294;2023-08-31T06:06:37;9.40;;;2.47;;
76310;SDS011;65120;59.304;18.294;2023-08-31T06:09:04;9.15;;;2.20;;
76310;SDS011;65120;59.304;18.294;2023-08-31T06:11:32;2.70;;;2.15;;
76310;SDS011;65120;59.304;18.294;2023-08-31T06:14:00;4.07;;;2.42;;
76310;SDS011;65120;59.304;18.294;2023-08-31T06:16:28;2.55;;;1.70;;
76310;SDS011;65120;59.304;18.294;2023-08-31T06:18:55;7.78;;;1.88;;
76310;SDS011;65120;59.304;18.294;2023-08-31T06:21:22;3.10;;;1.88;;
76310;SDS011;65120;59.304;18.294;2023-08-31T06:23:49;6.90;;;2.03;;
76310;SDS011;65120;59.304;18.294;2023-08-31T06:26:16;3.42;;;1.35;;
76310;SDS011;65120;59.304;18.294;2023-08-31T06:28:42;2.10;;;1.42;;
76310;SDS011;65120;59.304;18.294;2023-08-31T06:31:09;2.58;;;2.15;;
76310;SDS011;65120;59.304;18.294;2023-08-31T06:33:37;3.47;;;0.95;;
76310;SDS011;65120;59.304;18.294;2023-08-31T06:36:04;1.67;;;0.82;;
76310;SDS011;65120;59.304;18.294;2023-08-31T06:38:31;4.30;;;1.27;;
76310;SDS011;65120;59.304;18.294;2023-08-31T06:41:00;1.83;;;0.98;;
76310;SDS011;65120;59.304;18.294;2023-08-31T06:43:28;2.80;;;0.80;;
76310;SDS011;65120;59.304;18.294;2023-08-31T06:45:55;0.80;;;0.70;;
76310;SDS011;65120;59.304;18.294;2023-08-31T06:48:22;2.80;;;0.60;;
76310;SDS011;65120;59.304;18.294;2023-08-31T06:50:50;1.23;;;0.70;;
76310;SDS011;65120;59.304;18.294;2023-08-31T06:53:17;2.85;;;0.80;;
76310;SDS011;65120;59.304;18.294;2023-08-31T06:55:44;1.45;;;0.70;;
76310;SDS011;65120;59.304;18.294;2023-08-31T06:58:11;2.20;;;0.80;;
76310;SDS011;65120;59.304;18.294;2023-08-31T07:00:38;1.00;;;0.70;;
76310;SDS011;65120;59.304;18.294;2023-08-31T07:03:05;2.38;;;0.68;;
76310;SDS011;65120;59.304;18.294;2023-08-31T07:05:32;0.70;;;0.70;;
76310;SDS011;65120;59.304;18.294;2023-08-31T07:08:03;0.65;;;0.60;;
76310;SDS011;65120;59.304;18.294;2023-08-31T07:10:30;1.83;;;0.80;;
76310;SDS011;65120;59.304;18.294;2023-08-31T07:12:57;4.93;;;0.70;;
76310;SDS011;65120;59.304;18.294;2023-08-31T07:15:24;2.22;;;1.30;;
76310;SDS011;65120;59.304;18.294;2023-08-31T07:17:51;1.13;;;0.60;;
76310;SDS011;65120;59.304;18.294;2023-08-31T07:20:18;2.15;;;0.57;;
76310;SDS011;65120;59.304;18.294;2023-08-31T07:22:45;0.85;;;0.50;;
76310;SDS011;65120;59.304;18.294;2023-08-31T07:25:13;1.88;;;0.50;;
76310;SDS011;65120;59.304;18.294;2023-08-31T07:27:40;1.30;;;0.40;;
76310;SDS011;65120;59.304;18.294;2023-08-31T07:30:07;0.85;;;0.40;;
76310;SDS011;65120;59.304;18.294;2023-08-31T07:32:35;0.47;;;0.40;;
76310;SDS011;65120;59.304;18.294;2023-08-31T07:35:03;1.38;;;0.40;;
76310;SDS011;65120;59.304;18.294;2023-08-31T07:37:31;3.17;;;1.58;;
76310;SDS011;65120;59.304;18.294;2023-08-31T07:39:58;1.20;;;0.30;;
76310;SDS011;65120;59.304;18.294;2023-08-31T07:42:27;1.08;;;0.30;;
76310;SDS011;65120;59.304;18.294;2023-08-31T07:44:54;1.27;;;0.30;;
76310;SDS011;65120;59.304;18.294;2023-08-31T07:47:21;1.67;;;0.30;;
76310;SDS011;65120;59.304;18.294;2023-08-31T07:49:48;0.90;;;0.30;;
76310;SDS011;65120;59.304;18.294;2023-08-31T07:52:15;1.05;;;0.68;;
76310;SDS011;65120;59.304;18.294;2023-08-31T07:54:42;0.28;;;0.28;;
76310;SDS011;65120;59.304;18.294;2023-08-31T07:57:09;2.35;;;0.30;;
76310;SDS011;65120;59.304;18.294;2023-08-31T07:59:37;1.00;;;0.40;;
76310;SDS011;65120;59.304;18.294;2023-08-31T08:02:05;0.80;;;0.30;;
76310;SDS011;65120;59.304;18.294;2023-08-31T08:04:32;0.90;;;0.20;;
76310;SDS011;65120;59.304;18.294;2023-08-31T08:06:59;0.82;;;0.30;;
76310;SDS011;65120;59.304;18.294;2023-08-31T08:09:26;0.82;;;0.30;;
76310;SDS011;65120;59.304;18.294;2023-08-31T08:11:53;1.67;;;0.40;;
76310;SDS011;65120;59.304;18.294;2023-08-31T08:14:20;0.40;;;0.20;;
76310;SDS011;65120;59.304;18.294;2023-08-31T08:16:48;0.65;;;0.30;;
76310;SDS011;65120;59.304;18.294;2023-08-31T08:19:20;1.50;;;0.30;;
76310;SDS011;65120;59.304;18.294;2023-08-31T08:21:48;1.27;;;0.40;;
76310;SDS011;65120;59.304;18.294;2023-08-31T08:24:15;0.25;;;0.20;;
76310;SDS011;65120;59.304;18.294;2023-08-31T08:26:42;1.90;;;0.30;;
76310;SDS011;65120;59.304;18.294;2023-08-31T08:29:09;0.93;;;0.30;;
76310;SDS011;65120;59.304;18.294;2023-08-31T08:31:36;0.82;;;0.30;;
76310;SDS011;65120;59.304;18.294;2023-08-31T08:34:04;0.65;;;0.30;;
76310;SDS011;65120;59.304;18.294;2023-08-31T08:36:31;1.00;;;0.30;;
76310;SDS011;65120;59.304;18.294;2023-08-31T08:38:58;2.35;;;0.32;;
76310;SDS011;65120;59.304;18.294;2023-08-31T08:41:25;0.95;;;0.20;;
76310;SDS011;65120;59.304;18.294;2023-08-31T08:43:55;1.67;;;0.32;;
76310;SDS011;65120;59.304;18.294;2023-08-31T08:46:26;1.63;;;0.40;;
76310;SDS011;65120;59.304;18.294;2023-08-31T08:48:54;0.38;;;0.30;;
76310;SDS011;65120;59.304;18.294;2023-08-31T08:51:22;3.60;;;0.30;;
76310;SDS011;65120;59.304;18.294;2023-08-31T08:53:49;1.38;;;0.30;;
76310;SDS011;65120;59.304;18.294;2023-08-31T08:56:18;0.98;;;0.30;;
76310;SDS011;65120;59.304;18.294;2023-08-31T08:58:45;0.30;;;0.25;;
76310;SDS011;65120;59.304;18.294;2023-08-31T09:01:11;2.17;;;1.00;;
76310;SDS011;65120;59.304;18.294;2023-08-31T09:03:38;2.85;;;0.40;;
76310;SDS011;65120;59.304;18.294;2023-08-31T09:06:05;0.88;;;0.30;;
76310;SDS011;65120;59.304;18.294;2023-08-31T09:08:35;0.45;;;0.30;;
76310;SDS011;65120;59.304;18.294;2023-08-31T09:11:02;1.75;;;0.40;;
76310;SDS011;65120;59.304;18.294;2023-08-31T09:13:30;1.67;;;0.30;;
76310;SDS011;65120;59.304;18.294;2023-08-31T09:15:56;2.83;;;0.40;;
76310;SDS011;65120;59.304;18.294;2023-08-31T09:18:24;2.97;;;0.40;;
76310;SDS011;65120;59.304;18.294;2023-08-31T09:20:52;0.40;;;0.30;;
76310;SDS011;65120;59.304;18.294;2023-08-31T09:23:22;0.85;;;0.30;;
76310;SDS011;65120;59.304;18.294;2023-08-31T09:25:51;1.88;;;0.30;;
76310;SDS011;65120;59.304;18.294;2023-08-31T09:28:19;0.77;;;0.30;;
76310;SDS011;65120;59.304;18.294;2023-08-31T09:30:48;2.35;;;0.30;;
76310;SDS011;65120;59.304;18.294;2023-08-31T09:33:17;0.80;;;0.30;;
76310;SDS011;65120;59.304;18.294;2023-08-31T09:35:47;0.82;;;0.30;;
76310;SDS011;65120;59.304;18.294;2023-08-31T09:38:15;0.68;;;0.40;;
76310;SDS011;65120;59.304;18.294;2023-08-31T09:40:42;0.98;;;0.30;;
76310;SDS011;65120;59.304;18.294;2023-08-31T09:43:10;4.55;;;0.40;;
76310;SDS011;65120;59.304;18.294;2023-08-31T09:45:37;0.28;;;0.22;;
76310;SDS011;65120;59.304;18.294;2023-08-31T09:48:05;0.45;;;0.40;;
76310;SDS011;65120;59.304;18.294;2023-08-31T09:50:33;4.25;;;0.60;;
76310;SDS011;65120;59.304;18.294;2023-08-31T09:53:01;0.80;;;0.30;;
76310;SDS011;65120;59.304;18.294;2023-08-31T09:55:30;1.10;;;0.40;;
76310;SDS011;65120;59.304;18.294;2023-08-31T09:57:59;3.17;;;0.30;;
76310;SDS011;65120;59.304;18.294;2023-08-31T10:00:29;3.67;;;0.28;;
76310;SDS011;65120;59.304;18.294;2023-08-31T10:02:58;2.65;;;0.30;;
76310;SDS011;65120;59.304;18.294;2023-08-31T10:05:27;1.00;;;0.30;;
76310;SDS011;65120;59.304;18.294;2023-08-31T10:07:54;2.65;;;0.40;;
76310;SDS011;65120;59.304;18.294;2023-08-31T10:10:21;2.30;;;0.30;;
76310;SDS011;65120;59.304;18.294;2023-08-31T10:12:49;1.05;;;0.30;;
76310;SDS011;65120;59.304;18.294;2023-08-31T10:15:18;4.90;;;0.30;;
76310;SDS011;65120;59.304;18.294;2023-08-31T10:17:47;2.67;;;0.30;;
76310;SDS011;65120;59.304;18.294;2023-08-31T10:20:14;0.47;;;0.47;;
76310;SDS011;65120;59.304;18.294;2023-08-31T10:22:43;0.30;;;0.25;;
76310;SDS011;65120;59.304;18.294;2023-08-31T10:25:10;1.45;;;0.35;;
76310;SDS011;65120;59.304;18.294;2023-08-31T10:27:38;1.95;;;0.30;;
76310;SDS011;65120;59.304;18.294;2023-08-31T10:30:15;3.50;;;0.30;;
76310;SDS011;65120;59.304;18.294;2023-08-31T10:35:51;0.45;;;0.25;;
76310;SDS011;65120;59.304;18.294;2023-08-31T10:38:26;0.43;;;0.30;;
76310;SDS011;65120;59.304;18.294;2023-08-31T10:43:48;0.50;;;0.32;;
76310;SDS011;65120;59.304;18.294;2023-08-31T10:46:26;0.68;;;0.20;;
76310;SDS011;65120;59.304;18.294;2023-08-31T10:48:57;0.50;;;0.30;;
76310;SDS011;65120;59.304;18.294;2023-08-31T10:51:25;1.50;;;0.30;;
76310;SDS011;65120;59.304;18.294;2023-08-31T10:54:06;0.35;;;0.20;;
76310;SDS011;65120;59.304;18.294;2023-08-31T10:59:44;4.13;;;0.30;;
76310;SDS011;65120;59.304;18.294;2023-08-31T11:02:28;1.95;;;0.30;;
76310;SDS011;65120;59.304;18.294;2023-08-31T11:05:01;2.10;;;0.30;;
76310;SDS011;65120;59.304;18.294;2023-08-31T11:07:31;0.28;;;0.22;;
76310;SDS011;65120;59.304;18.294;2023-08-31T11:10:07;0.40;;;0.20;;
76310;SDS011;65120;59.304;18.294;2023-08-31T11:12:36;0.57;;;0.30;;
76310;SDS011;65120;59.304;18.294;2023-08-31T11:15:03;0.38;;;0.30;;
76310;SDS011;65120;59.304;18.294;2023-08-31T11:17:31;0.85;;;0.40;;
76310;SDS011;65120;59.304;18.294;2023-08-31T11:20:00;0.68;;;0.20;;
76310;SDS011;65120;59.304;18.294;2023-08-31T11:22:30;1.25;;;0.20;;
76310;SDS011;65120;59.304;18.294;2023-08-31T11:24:58;1.65;;;0.38;;
76310;SDS011;65120;59.304;18.294;2023-08-31T11:27:25;0.40;;;0.30;;
76310;SDS011;65120;59.304;18.294;2023-08-31T11:29:52;2.17;;;0.20;;
76310;SDS011;65120;59.304;18.294;2023-08-31T11:32:19;0.38;;;0.20;;
76310;SDS011;65120;59.304;18.294;2023-08-31T11:34:50;1.63;;;0.20;;
76310;SDS011;65120;59.304;18.294;2023-08-31T11:37:18;0.55;;;0.20;;
76310;SDS011;65120;59.304;18.294;2023-08-31T11:39:48;0.85;;;0.40;;
76310;SDS011;65120;59.304;18.294;2023-08-31T11:42:17;0.70;;;0.20;;
76310;SDS011;65120;59.304;18.294;2023-08-31T11:44:45;0.88;;;0.30;;
76310;SDS011;65120;59.304;18.294;2023-08-31T11:47:14;0.47;;;0.30;;
76310;SDS011;65120;59.304;18.294;2023-08-31T11:49:42;0.95;;;0.20;;
76310;SDS011;65120;59.304;18.294;2023-08-31T11:52:10;1.35;;;0.20;;
76310;SDS011;65120;59.304;18.294;2023-08-31T11:54:39;1.20;;;0.30;;
76310;SDS011;65120;59.304;18.294;2023-08-31T11:57:08;3.08;;;0.55;;
76310;SDS011;65120;59.304;18.294;2023-08-31T11:59:35;0.47;;;0.20;;
76310;SDS011;65120;59.304;18.294;2023-08-31T12:02:05;1.73;;;0.20;;
76310;SDS011;65120;59.304;18.294;2023-08-31T12:04:33;0.28;;;0.20;;
76310;SDS011;65120;59.304;18.294;2023-08-31T12:07:09;1.73;;;0.20;;
76310;SDS011;65120;59.304;18.294;2023-08-31T12:09:36;1.48;;;0.20;;
76310;SDS011;65120;59.304;18.294;2023-08-31T12:12:04;0.43;;;0.20;;
76310;SDS011;65120;59.304;18.294;2023-08-31T12:14:36;3.10;;;0.22;;
76310;SDS011;65120;59.304;18.294;2023-08-31T12:17:05;4.72;;;0.52;;
76310;SDS011;65120;59.304;18.294;2023-08-31T12:19:33;0.63;;;0.30;;
76310;SDS011;65120;59.304;18.294;2023-08-31T12:22:03;2.20;;;0.20;;
76310;SDS011;65120;59.304;18.294;2023-08-31T12:24:36;1.05;;;0.82;;
76310;SDS011;65120;59.304;18.294;2023-08-31T12:27:05;0.75;;;0.20;;
76310;SDS011;65120;59.304;18.294;2023-08-31T12:29:32;0.20;;;0.20;;
76310;SDS011;65120;59.304;18.294;2023-08-31T12:31:59;0.47;;;0.30;;
76310;SDS011;65120;59.304;18.294;2023-08-31T12:34:26;0.25;;;0.20;;
76310;SDS011;65120;59.304;18.294;2023-08-31T12:36:53;0.38;;;0.20;;
76310;SDS011;65120;59.304;18.294;2023-08-31T12:39:24;0.30;;;0.20;;
76310;SDS011;65120;59.304;18.294;2023-08-31T12:41:51;1.33;;;0.30;;
76310;SDS011;65120;59.304;18.294;2023-08-31T12:44:19;1.75;;;0.20;;
76310;SDS011;65120;59.304;18.294;2023-08-31T12:46:47;0.88;;;0.20;;
76310;SDS011;65120;59.304;18.294;2023-08-31T12:49:14;1.75;;;0.30;;
76310;SDS011;65120;59.304;18.294;2023-08-31T12:51:40;0.55;;;0.20;;
76310;SDS011;65120;59.304;18.294;2023-08-31T12:54:07;1.25;;;0.30;;
76310;SDS011;65120;59.304;18.294;2023-08-31T12:56:34;0.60;;;0.30;;
76310;SDS011;65120;59.304;18.294;2023-08-31T12:59:03;0.88;;;0.20;;
76310;SDS011;65120;59.304;18.294;2023-08-31T13:01:32;1.05;;;0.20;;
76310;SDS011;65120;59.304;18.294;2023-08-31T13:03:59;0.73;;;0.20;;
76310;SDS011;65120;59.304;18.294;2023-08-31T13:06:27;0.30;;;0.30;;
76310;SDS011;65120;59.304;18.294;2023-08-31T13:08:54;0.40;;;0.25;;
76310;SDS011;65120;59.304;18.294;2023-08-31T13:11:21;0.98;;;0.20;;
76310;SDS011;65120;59.304;18.294;2023-08-31T13:13:49;7.32;;;0.65;;
76310;SDS011;65120;59.304;18.294;2023-08-31T13:16:17;1.95;;;0.20;;
76310;SDS011;65120;59.304;18.294;2023-08-31T13:18:46;0.30;;;0.20;;
76310;SDS011;65120;59.304;18.294;2023-08-31T13:21:12;0.40;;;0.30;;
76310;SDS011;65120;59.304;18.294;2023-08-31T13:23:39;1.95;;;0.20;;
76310;SDS011;65120;59.304;18.294;2023-08-31T13:26:08;1.85;;;0.15;;
76310;SDS011;65120;59.304;18.294;2023-08-31T13:28:35;1.13;;;0.30;;
76310;SDS011;65120;59.304;18.294;2023-08-31T13:31:02;0.30;;;0.20;;
76310;SDS011;65120;59.304;18.294;2023-08-31T13:33:29;1.42;;;0.20;;
76310;SDS011;65120;59.304;18.294;2023-08-31T13:35:57;0.30;;;0.20;;
76310;SDS011;65120;59.304;18.294;2023-08-31T13:38:25;0.43;;;0.20;;
76310;SDS011;65120;59.304;18.294;2023-08-31T13:40:53;1.20;;;0.30;;
76310;SDS011;65120;59.304;18.294;2023-08-31T13:43:22;0.40;;;0.20;;
76310;SDS011;65120;59.304;18.294;2023-08-31T13:45:49;0.30;;;0.20;;
76310;SDS011;65120;59.304;18.294;2023-08-31T13:48:16;0.60;;;0.22;;
76310;SDS011;65120;59.304;18.294;2023-08-31T13:50:45;2.67;;;0.30;;
76310;SDS011;65120;59.304;18.294;2023-08-31T13:53:14;0.77;;;0.20;;
76310;SDS011;65120;59.304;18.294;2023-08-31T13:55:41;1.13;;;0.20;;
76310;SDS011;65120;59.304;18.294;2023-08-31T13:58:08;0.20;;;0.10;;
76310;SDS011;65120;59.304;18.294;2023-08-31T14:00:35;1.98;;;0.20;;
76310;SDS011;65120;59.304;18.294;2023-08-31T14:03:03;0.63;;;0.20;;
76310;SDS011;65120;59.304;18.294;2023-08-31T14:05:30;1.90;;;0.28;;
76310;SDS011;65120;59.304;18.294;2023-08-31T14:07:58;1.40;;;0.20;;
76310;SDS011;65120;59.304;18.294;2023-08-31T14:10:28;2.20;;;0.20;;
76310;SDS011;65120;59.304;18.294;2023-08-31T14:12:56;2.05;;;0.30;;
76310;SDS011;65120;59.304;18.294;2023-08-31T14:15:23;2.53;;;0.30;;
76310;SDS011;65120;59.304;18.294;2023-08-31T14:17:51;3.88;;;0.22;;
76310;SDS011;65120;59.304;18.294;2023-08-31T14:20:18;2.15;;;0.20;;
76310;SDS011;65120;59.304;18.294;2023-08-31T14:22:45;0.85;;;0.20;;
76310;SDS011;65120;59.304;18.294;2023-08-31T14:25:12;1.38;;;0.30;;
76310;SDS011;65120;59.304;18.294;2023-08-31T14:27:41;2.85;;;0.25;;
76310;SDS011;65120;59.304;18.294;2023-08-31T14:30:08;1.85;;;0.30;;
76310;SDS011;65120;59.304;18.294;2023-08-31T14:32:35;0.30;;;0.20;;
76310;SDS011;65120;59.304;18.294;2023-08-31T14:35:03;3.45;;;0.80;;
76310;SDS011;65120;59.304;18.294;2023-08-31T14:37:31;2.47;;;0.25;;
76310;SDS011;65120;59.304;18.294;2023-08-31T14:39:58;5.00;;;0.30;;
76310;SDS011;65120;59.304;18.294;2023-08-31T14:42:25;5.10;;;0.43;;
76310;SDS011;65120;59.304;18.294;2023-08-31T14:44:52;5.05;;;0.60;;
76310;SDS011;65120;59.304;18.294;2023-08-31T14:47:19;2.50;;;0.40;;
76310;SDS011;65120;59.304;18.294;2023-08-31T14:49:46;4.07;;;0.35;;